Alfordsville, Indiana
Current Conditions -  °F | °C
As of 3:55 PM on Tuesday 25 Nov 2014 (Local Time) from KDCY Reporting Station
Overcast Overcast  
Wind Chill: 26°   Ceiling: 2000
Heat Index: 32°   Visibility: 10mi
Dew Point: 29°   Wind: 7mph
Humidity: 86%   Direction: 360°N
Pressure: 30.17"   Gusts: NA
Location:  38.6074°N, 86.9234°W
Report Text: KDCY 252155Z AUTO 36006KT 10SM OVC020 00/M02 A3017 RMK AO2 T00021019
Loading
Personal Weather Stations






























Interactive Weather Map New forecast layout! Learn more

10-Day Weather Forecast

Advertisements
Track Severe Weather on mobile